Time;durP1;ratioP1;P1;durP2;ratioP2;P2;SDS_P1;SDS_P2;PMS_P1;PMS_P2;Temp;Humidity;BMP_temperature;BMP_pressure;BME280_temperature;BME280_humidity;BME280_pressure;Samples;Min_cycle;Max_cycle;Signal;HPM_P1;HPM_P2
2023/08/10 00:01:02;;;;;;;3.05;1.58;;;18.30;99.90;;;;;;5000014;28;20104;-78
2023/08/10 00:03:29;;;;;;;4.32;1.67;;;18.20;99.90;;;;;;5002588;28;20045;-78
2023/08/10 00:05:56;;;;;;;2.72;1.38;;;18.20;99.90;;;;;;5007965;28;20045;-77
2023/08/10 00:08:23;;;;;;;5.28;1.70;;;18.10;99.90;;;;;;5007246;28;20054;-78
2023/08/10 00:10:50;;;;;;;3.08;1.80;;;18.20;99.90;;;;;;5002756;28;20081;-78
2023/08/10 00:13:17;;;;;;;1.85;1.40;;;18.10;99.90;;;;;;5004210;28;20050;-78
2023/08/10 00:15:44;;;;;;;2.75;1.67;;;18.10;99.90;;;;;;5001949;28;20532;-77
2023/08/10 00:18:10;;;;;;;1.65;1.40;;;18.10;99.90;;;;;;5000528;28;20053;-78
2023/08/10 00:20:37;;;;;;;3.25;1.63;;;18.00;99.90;;;;;;5022007;28;20050;-77
2023/08/10 00:23:04;;;;;;;3.58;1.40;;;18.00;99.90;;;;;;5011187;28;20053;-77
2023/08/10 00:25:33;;;;;;;5.63;1.42;;;17.90;99.90;;;;;;5000682;28;20129;-78
2023/08/10 00:28:00;;;;;;;5.20;1.48;;;17.90;99.90;;;;;;5001504;28;20116;-77
2023/08/10 00:30:28;;;;;;;2.13;1.17;;;17.90;99.90;;;;;;5001813;28;20096;-78
2023/08/10 00:32:55;;;;;;;6.07;1.40;;;17.80;99.90;;;;;;5004916;28;20542;-77
2023/08/10 00:35:23;;;;;;;3.63;1.98;;;17.80;99.90;;;;;;5003936;28;20046;-77
2023/08/10 00:37:50;;;;;;;3.35;1.40;;;17.80;99.90;;;;;;5006291;28;20046;-77
2023/08/10 00:40:17;;;;;;;2.60;1.63;;;17.80;99.90;;;;;;4998740;28;20469;-77
2023/08/10 00:42:43;;;;;;;3.47;1.30;;;17.80;99.90;;;;;;5002785;28;20497;-77
2023/08/10 00:45:10;;;;;;;3.63;1.52;;;17.70;99.90;;;;;;5001421;28;20054;-77
2023/08/10 00:47:38;;;;;;;5.65;1.50;;;17.70;99.90;;;;;;4996411;28;20050;-77
2023/08/10 00:50:05;;;;;;;2.80;1.42;;;17.70;99.90;;;;;;5003426;28;20416;-77
2023/08/10 00:52:33;;;;;;;3.72;1.75;;;17.60;99.90;;;;;;5007556;28;20046;-77
2023/08/10 00:55:01;;;;;;;4.30;1.75;;;17.70;99.90;;;;;;4998712;28;20042;-78
2023/08/10 00:57:28;;;;;;;4.28;1.45;;;17.70;99.90;;;;;;4999586;28;20053;-78
2023/08/10 00:59:55;;;;;;;3.35;1.38;;;17.60;99.90;;;;;;5004838;28;20123;-77
2023/08/10 01:02:22;;;;;;;2.35;1.42;;;17.60;99.90;;;;;;5001174;28;20427;-78
2023/08/10 01:04:49;;;;;;;3.35;1.42;;;17.60;99.90;;;;;;5006247;28;20100;-77
2023/08/10 01:07:29;;;;;;;5.38;1.45;;;17.60;99.90;;;;;;5006210;28;20058;-78
2023/08/10 01:10:14;;;;;;;1.60;1.23;;;17.60;99.90;;;;;;4999887;28;20082;-78
2023/08/10 01:12:53;;;;;;;1.75;1.42;;;17.60;99.90;;;;;;5000303;28;20054;-78
2023/08/10 01:15:35;;;;;;;6.03;1.40;;;17.50;99.90;;;;;;5018558;28;20054;-78
2023/08/10 01:18:08;;;;;;;3.50;1.20;;;17.50;99.90;;;;;;5007396;28;20047;-77
2023/08/10 01:20:35;;;;;;;2.42;1.45;;;17.50;99.90;;;;;;5002342;28;20053;-78
2023/08/10 01:23:02;;;;;;;2.20;1.50;;;17.50;99.90;;;;;;5010339;28;20091;-77
2023/08/10 01:25:30;;;;;;;1.33;1.13;;;17.50;99.90;;;;;;4999166;28;20062;-78
2023/08/10 01:27:57;;;;;;;1.98;1.40;;;17.50;99.90;;;;;;5000931;28;20042;-78
2023/08/10 01:30:24;;;;;;;2.22;1.45;;;17.40;99.90;;;;;;5002307;28;20476;-78
2023/08/10 01:32:52;;;;;;;3.35;1.33;;;17.40;99.90;;;;;;5011563;28;20468;-78
2023/08/10 01:35:19;;;;;;;1.60;1.23;;;17.40;99.90;;;;;;5003202;28;20077;-78
2023/08/10 01:37:46;;;;;;;2.05;1.40;;;17.40;99.90;;;;;;5005405;28;20046;-78
2023/08/10 01:40:13;;;;;;;2.20;1.35;;;17.30;99.90;;;;;;4998668;28;20050;-78
2023/08/10 01:42:42;;;;;;;2.08;1.38;;;17.30;99.90;;;;;;5002569;28;20123;-78
2023/08/10 01:45:10;;;;;;;3.03;1.60;;;17.30;99.90;;;;;;5003681;28;20050;-78
2023/08/10 01:47:44;;;;;;;2.08;1.40;;;17.30;99.90;;;;;;5028714;28;20046;-78
2023/08/10 01:50:12;;;;;;;2.22;1.13;;;17.30;99.90;;;;;;5009408;28;20042;-78
2023/08/10 01:52:47;;;;;;;1.90;1.15;;;17.30;99.90;;;;;;5011602;28;20046;-78
2023/08/10 01:55:14;;;;;;;7.22;1.52;;;17.20;99.90;;;;;;5009411;28;20046;-78
2023/08/10 01:57:40;;;;;;;4.50;1.27;;;17.20;99.90;;;;;;5024320;28;20050;-77
2023/08/10 02:00:08;;;;;;;4.20;1.58;;;17.20;99.90;;;;;;5008507;28;20092;-77
2023/08/10 02:02:35;;;;;;;1.60;1.25;;;17.20;99.90;;;;;;5008464;28;20518;-77
2023/08/10 02:05:02;;;;;;;2.72;1.60;;;17.20;99.90;;;;;;5001259;28;20077;-77
2023/08/10 02:07:28;;;;;;;2.88;1.40;;;17.20;99.90;;;;;;5007096;28;20473;-77
2023/08/10 02:09:55;;;;;;;1.70;1.20;;;17.20;99.90;;;;;;5006151;28;20090;-77
2023/08/10 02:12:22;;;;;;;1.73;1.30;;;17.20;99.90;;;;;;5004318;28;20054;-78
2023/08/10 02:14:51;;;;;;;2.47;1.23;;;17.10;99.90;;;;;;5008340;28;20042;-78
2023/08/10 02:17:18;;;;;;;2.22;1.13;;;17.10;99.90;;;;;;5011568;28;20046;-77
2023/08/10 02:19:45;;;;;;;1.48;1.38;;;17.10;99.90;;;;;;5005517;28;20069;-77
2023/08/10 02:22:12;;;;;;;2.63;1.30;;;17.10;99.90;;;;;;5007874;28;20046;-78
2023/08/10 02:24:38;;;;;;;4.55;1.63;;;17.00;99.90;;;;;;5004866;28;20046;-78
2023/08/10 02:27:05;;;;;;;5.85;1.65;;;17.00;99.90;;;;;;5007813;28;20049;-79
2023/08/10 02:29:32;;;;;;;2.60;1.50;;;17.00;99.90;;;;;;5020079;28;20061;-78
2023/08/10 02:32:00;;;;;;;3.17;1.40;;;17.00;99.90;;;;;;5014408;28;20050;-77
2023/08/10 02:34:27;;;;;;;2.13;1.40;;;17.00;99.90;;;;;;5012609;28;20132;-78
2023/08/10 02:36:54;;;;;;;2.58;1.33;;;16.90;99.90;;;;;;5015240;28;20038;-78
2023/08/10 02:39:21;;;;;;;1.80;1.50;;;16.90;99.90;;;;;;5007787;28;20054;-78
2023/08/10 02:41:48;;;;;;;2.63;1.23;;;16.90;99.90;;;;;;5010609;28;20050;-77
2023/08/10 02:44:14;;;;;;;3.47;1.50;;;16.80;99.90;;;;;;5010112;28;20038;-77
2023/08/10 02:46:42;;;;;;;2.75;1.35;;;16.80;99.90;;;;;;5016799;28;20045;-78
2023/08/10 02:49:08;;;;;;;2.33;1.40;;;16.80;99.90;;;;;;5009933;28;20104;-78
2023/08/10 02:51:35;;;;;;;1.42;1.30;;;16.80;99.90;;;;;;5007648;28;20050;-78
2023/08/10 02:54:02;;;;;;;2.10;1.50;;;16.80;99.90;;;;;;5007549;28;20046;-77
2023/08/10 02:56:29;;;;;;;2.47;1.45;;;16.80;99.90;;;;;;5000178;28;20108;-77
2023/08/10 02:58:55;;;;;;;1.92;1.35;;;16.70;99.90;;;;;;5013409;28;20045;-77
2023/08/10 03:01:22;;;;;;;3.03;1.60;;;16.70;99.90;;;;;;5008474;28;20054;-76
2023/08/10 03:03:49;;;;;;;6.63;1.90;;;16.70;99.90;;;;;;5019701;28;20557;-77
2023/08/10 03:06:16;;;;;;;2.30;1.40;;;16.70;99.90;;;;;;5002669;28;20720;-78
2023/08/10 03:08:43;;;;;;;1.92;1.38;;;16.60;99.90;;;;;;5006212;28;20058;-77
2023/08/10 03:11:10;;;;;;;1.48;1.30;;;16.60;99.90;;;;;;4997635;28;20465;-77
2023/08/10 03:13:37;;;;;;;4.15;1.83;;;16.60;99.90;;;;;;5007842;28;20054;-77
2023/08/10 03:16:04;;;;;;;2.15;1.50;;;16.60;99.90;;;;;;5008213;28;20046;-77
2023/08/10 03:18:30;;;;;;;2.60;1.40;;;16.50;99.90;;;;;;5004096;28;20054;-77
2023/08/10 03:20:57;;;;;;;1.90;1.45;;;16.50;99.90;;;;;;5004434;28;20454;-77
2023/08/10 03:23:24;;;;;;;2.13;1.30;;;16.50;99.90;;;;;;5005786;28;20422;-77
2023/08/10 03:25:51;;;;;;;1.75;1.45;;;16.50;99.90;;;;;;4999350;28;20058;-77
2023/08/10 03:28:17;;;;;;;2.85;1.50;;;16.40;99.90;;;;;;5005012;28;20061;-77
2023/08/10 03:30:44;;;;;;;2.92;1.75;;;16.40;99.90;;;;;;5008755;28;20078;-77
2023/08/10 03:33:11;;;;;;;3.25;1.75;;;16.40;99.90;;;;;;5004647;28;20053;-78
2023/08/10 03:35:37;;;;;;;4.30;1.50;;;16.40;99.90;;;;;;5000806;28;20513;-77
2023/08/10 03:38:04;;;;;;;3.17;1.60;;;16.40;99.90;;;;;;5004986;28;20092;-78
2023/08/10 03:40:31;;;;;;;2.70;1.35;;;16.30;99.90;;;;;;5008910;28;20144;-78
2023/08/10 03:42:58;;;;;;;3.17;1.50;;;16.30;99.90;;;;;;5007222;28;20092;-78
2023/08/10 03:45:24;;;;;;;3.05;1.75;;;16.30;99.90;;;;;;5007426;28;20475;-78
2023/08/10 03:47:51;;;;;;;4.00;1.80;;;16.20;99.90;;;;;;5007701;28;20472;-77
2023/08/10 03:50:18;;;;;;;3.35;1.55;;;16.20;99.90;;;;;;5000381;28;20081;-77
2023/08/10 03:52:45;;;;;;;6.28;1.83;;;16.20;99.90;;;;;;5003807;28;20050;-77
2023/08/10 03:55:14;;;;;;;3.97;1.70;;;16.20;99.90;;;;;;4999557;28;20536;-78
2023/08/10 03:57:41;;;;;;;2.10;1.55;;;16.20;99.90;;;;;;5004989;28;20042;-78
2023/08/10 04:00:10;;;;;;;3.25;1.85;;;16.10;99.90;;;;;;5006368;28;20046;-77
2023/08/10 04:02:37;;;;;;;5.60;2.00;;;16.10;99.90;;;;;;5006252;28;20078;-77
2023/08/10 04:05:06;;;;;;;3.45;1.75;;;16.10;99.90;;;;;;5000199;28;20046;-77
2023/08/10 04:07:33;;;;;;;3.13;1.77;;;16.10;99.90;;;;;;5008057;28;20049;-77
2023/08/10 04:10:01;;;;;;;2.70;1.48;;;16.10;99.90;;;;;;5000642;28;20045;-78
2023/08/10 04:12:27;;;;;;;2.65;1.80;;;16.10;99.90;;;;;;5004717;28;20046;-77
2023/08/10 04:14:54;;;;;;;1.50;1.20;;;16.00;99.90;;;;;;5001147;28;20440;-77
2023/08/10 04:17:21;;;;;;;4.47;1.63;;;16.00;99.90;;;;;;5004768;28;20069;-77
2023/08/10 04:19:48;;;;;;;6.35;1.50;;;16.00;99.90;;;;;;4999108;28;20050;-78
2023/08/10 04:22:15;;;;;;;5.85;1.70;;;16.00;99.90;;;;;;5005231;28;20046;-78
2023/08/10 04:24:41;;;;;;;1.88;1.55;;;16.00;99.90;;;;;;5001067;28;20101;-78
2023/08/10 04:27:08;;;;;;;3.08;1.70;;;15.90;99.90;;;;;;5010636;28;20053;-77
2023/08/10 04:29:35;;;;;;;2.67;1.92;;;15.90;99.90;;;;;;5002256;28;20049;-78
2023/08/10 04:32:02;;;;;;;4.80;1.50;;;15.90;99.90;;;;;;5005627;28;20054;-77
2023/08/10 04:34:32;;;;;;;2.08;1.80;;;15.90;99.90;;;;;;4998332;28;20057;-77
2023/08/10 04:36:58;;;;;;;6.10;1.85;;;15.90;99.90;;;;;;5004524;28;20053;-78
2023/08/10 04:39:25;;;;;;;6.78;2.10;;;15.90;99.90;;;;;;5016415;28;20056;-77
2023/08/10 04:41:52;;;;;;;5.10;1.80;;;15.80;99.90;;;;;;5007007;28;20069;-77
2023/08/10 04:44:19;;;;;;;5.10;2.20;;;15.90;99.90;;;;;;5002298;28;20129;-77
2023/08/10 04:46:46;;;;;;;4.60;1.60;;;15.80;99.90;;;;;;5005167;28;20049;-77
2023/08/10 04:49:13;;;;;;;4.13;2.30;;;15.80;99.90;;;;;;4998907;28;20453;-77
2023/08/10 04:51:40;;;;;;;4.47;2.40;;;15.80;99.90;;;;;;5002153;28;20092;-77
2023/08/10 04:54:08;;;;;;;3.63;1.92;;;15.80;99.90;;;;;;5004457;28;20394;-78
2023/08/10 04:56:36;;;;;;;3.33;1.90;;;15.80;99.90;;;;;;5006788;28;20042;-77
2023/08/10 04:59:03;;;;;;;3.30;1.55;;;15.90;99.90;;;;;;4999764;28;20057;-78
2023/08/10 05:01:30;;;;;;;3.03;1.50;;;15.90;99.90;;;;;;5004702;28;20051;-78
2023/08/10 05:03:57;;;;;;;3.20;2.10;;;16.00;99.90;;;;;;4998847;28;20046;-77
2023/08/10 05:06:23;;;;;;;3.03;1.38;;;16.10;99.90;;;;;;5001140;28;20060;-77
2023/08/10 05:08:50;;;;;;;2.08;1.65;;;16.10;99.90;;;;;;5004800;28;20050;-77
2023/08/10 05:11:17;;;;;;;1.80;1.52;;;16.20;99.90;;;;;;5009306;28;20049;-78
2023/08/10 05:13:44;;;;;;;5.43;2.10;;;16.30;99.90;;;;;;5003136;28;20073;-78
2023/08/10 05:16:11;;;;;;;2.75;1.90;;;16.40;99.90;;;;;;5002286;28;20536;-77
2023/08/10 05:18:37;;;;;;;3.67;2.58;;;16.50;99.90;;;;;;5002981;28;20054;-77
2023/08/10 05:21:04;;;;;;;5.07;1.90;;;16.50;99.90;;;;;;4999673;28;20116;-77
2023/08/10 05:23:31;;;;;;;3.33;2.08;;;16.60;99.90;;;;;;5008685;28;20576;-78
2023/08/10 05:25:58;;;;;;;2.30;1.90;;;16.70;99.90;;;;;;5010119;28;20046;-78
2023/08/10 05:28:24;;;;;;;3.35;2.17;;;16.70;99.90;;;;;;5004059;28;20058;-78
2023/08/10 05:30:51;;;;;;;3.97;2.47;;;16.70;99.90;;;;;;5003846;28;20058;-78
2023/08/10 05:33:18;;;;;;;4.90;2.60;;;16.70;99.90;;;;;;5001908;28;20054;-78
2023/08/10 05:35:46;;;;;;;4.40;3.10;;;16.70;99.90;;;;;;5010429;28;20473;-78
2023/08/10 05:38:13;;;;;;;7.72;2.78;;;16.80;99.90;;;;;;5006275;28;20038;-78
2023/08/10 05:40:40;;;;;;;8.52;3.00;;;16.80;99.90;;;;;;5009266;28;20050;-78
2023/08/10 05:43:07;;;;;;;5.10;2.80;;;16.80;99.90;;;;;;5005182;28;20046;-78
2023/08/10 05:45:34;;;;;;;5.68;2.55;;;16.70;99.90;;;;;;5003908;28;20054;-78
2023/08/10 05:48:01;;;;;;;3.30;2.88;;;16.80;99.90;;;;;;5002769;28;20045;-78
2023/08/10 05:50:27;;;;;;;6.13;2.40;;;16.80;99.90;;;;;;4996015;28;20050;-78
2023/08/10 05:52:54;;;;;;;6.38;2.30;;;16.80;99.90;;;;;;5007489;28;20053;-78
2023/08/10 05:55:21;;;;;;;4.15;2.40;;;16.80;99.90;;;;;;5008313;28;20430;-78
2023/08/10 05:57:48;;;;;;;4.22;3.08;;;16.80;99.90;;;;;;5003034;28;20415;-78
2023/08/10 06:00:16;;;;;;;4.07;2.58;;;16.80;99.90;;;;;;5015033;28;20046;-77
2023/08/10 06:02:45;;;;;;;4.70;2.05;;;16.90;99.90;;;;;;5006055;28;20080;-78
2023/08/10 06:05:12;;;;;;;3.95;2.47;;;16.90;99.90;;;;;;5003378;28;20073;-77
2023/08/10 06:07:39;;;;;;;3.22;2.65;;;16.90;99.90;;;;;;5003846;28;20050;-77
2023/08/10 06:10:06;;;;;;;4.75;2.88;;;16.90;99.90;;;;;;5006908;28;20046;-77
2023/08/10 06:12:33;;;;;;;4.68;2.28;;;16.90;99.90;;;;;;4999064;28;20078;-77
2023/08/10 06:15:00;;;;;;;3.95;2.33;;;17.00;99.90;;;;;;5000463;28;20054;-77
2023/08/10 06:17:26;;;;;;;5.55;2.58;;;17.00;99.90;;;;;;5004897;28;20050;-77
2023/08/10 06:19:53;;;;;;;3.88;1.90;;;17.00;99.90;;;;;;5015643;28;20496;-77
2023/08/10 06:22:24;;;;;;;3.20;2.20;;;17.00;99.90;;;;;;5002324;28;20128;-77
2023/08/10 06:24:51;;;;;;;4.47;2.03;;;17.00;99.90;;;;;;5006708;28;20050;-77
2023/08/10 06:27:18;;;;;;;6.57;1.83;;;17.10;99.90;;;;;;5001652;28;20054;-77
2023/08/10 06:29:44;;;;;;;2.05;1.83;;;17.10;99.90;;;;;;4997826;28;20058;-77
2023/08/10 06:32:11;;;;;;;2.92;1.80;;;17.10;99.90;;;;;;5000641;28;20042;-77
2023/08/10 06:34:38;;;;;;;2.58;1.75;;;17.10;99.90;;;;;;4995523;28;20058;-77
2023/08/10 06:37:05;;;;;;;3.30;1.92;;;17.10;99.90;;;;;;5007066;28;20049;-77
2023/08/10 06:39:32;;;;;;;5.35;1.83;;;17.10;99.90;;;;;;5006286;28;20046;-77
2023/08/10 06:41:58;;;;;;;2.25;1.70;;;17.20;99.90;;;;;;5001022;28;20046;-77
2023/08/10 06:44:25;;;;;;;3.83;1.90;;;17.20;99.90;;;;;;5003203;28;20042;-77
2023/08/10 06:46:52;;;;;;;4.13;2.55;;;17.20;99.90;;;;;;5003427;28;20054;-77
2023/08/10 06:49:21;;;;;;;3.17;2.55;;;17.30;99.90;;;;;;5011282;28;20055;-76
2023/08/10 06:51:50;;;;;;;2.58;1.90;;;17.30;99.90;;;;;;5006220;28;20137;-77
2023/08/10 06:54:18;;;;;;;10.18;2.33;;;17.30;99.90;;;;;;5006370;28;20442;-77
2023/08/10 06:56:44;;;;;;;4.32;2.17;;;17.40;99.90;;;;;;5004344;28;20051;-77
2023/08/10 06:59:11;;;;;;;5.68;2.25;;;17.40;99.90;;;;;;5005744;28;20092;-77
2023/08/10 07:01:41;;;;;;;3.55;2.35;;;17.40;99.90;;;;;;5002994;28;20139;-77
2023/08/10 07:04:08;;;;;;;4.22;2.35;;;17.40;99.90;;;;;;5003493;28;20457;-77
2023/08/10 07:06:34;;;;;;;4.00;2.55;;;17.50;99.90;;;;;;5001888;28;20121;-77
2023/08/10 07:09:01;;;;;;;6.95;2.70;;;17.50;99.90;;;;;;5005897;28;21012;-77
2023/08/10 07:11:28;;;;;;;4.28;2.60;;;17.60;99.90;;;;;;5009478;28;20426;-77
2023/08/10 07:13:55;;;;;;;6.95;2.58;;;17.60;99.90;;;;;;5002270;28;20046;-77
2023/08/10 07:16:22;;;;;;;3.35;2.63;;;17.60;99.90;;;;;;5004238;28;20077;-77
2023/08/10 07:18:48;;;;;;;5.95;2.63;;;17.70;99.90;;;;;;5006858;28;20046;-77
2023/08/10 07:21:15;;;;;;;6.07;2.22;;;17.70;99.90;;;;;;5007285;28;20058;-77
2023/08/10 07:23:42;;;;;;;7.32;2.47;;;17.70;99.90;;;;;;5006020;28;20124;-77
2023/08/10 07:26:10;;;;;;;5.97;2.40;;;17.80;99.90;;;;;;5006958;28;20560;-77
2023/08/10 07:28:37;;;;;;;4.32;2.50;;;17.90;99.90;;;;;;4999953;28;20057;-77
2023/08/10 07:31:04;;;;;;;5.07;2.50;;;17.90;99.90;;;;;;5002167;28;20510;-77
2023/08/10 07:33:30;;;;;;;5.40;2.45;;;17.90;99.90;;;;;;5006186;28;20066;-77
2023/08/10 07:35:59;;;;;;;5.97;2.88;;;18.00;99.90;;;;;;5005775;28;20485;-77
2023/08/10 07:38:25;;;;;;;4.75;2.67;;;18.00;99.90;;;;;;5005621;28;20441;-78
2023/08/10 07:40:53;;;;;;;4.78;1.95;;;18.00;99.90;;;;;;5028960;23;20054;-83
2023/08/10 07:43:20;;;;;;;3.63;2.80;;;18.10;99.90;;;;;;4991809;28;20046;-82
2023/08/10 07:45:48;;;;;;;3.10;2.15;;;18.10;99.90;;;;;;5009425;28;20461;-81
2023/08/10 07:48:15;;;;;;;3.45;1.80;;;18.20;99.90;;;;;;5010730;28;20050;-82
2023/08/10 07:50:41;;;;;;;3.58;2.17;;;18.20;99.90;;;;;;5008710;28;20062;-82
2023/08/10 07:53:08;;;;;;;3.63;2.28;;;18.20;99.90;;;;;;5007646;28;20065;-82
2023/08/10 07:55:35;;;;;;;2.80;1.85;;;18.30;99.90;;;;;;5007349;28;20104;-82
2023/08/10 07:58:01;;;;;;;4.20;2.67;;;18.30;99.90;;;;;;4995229;28;20100;-81
2023/08/10 08:00:28;;;;;;;3.78;2.13;;;18.40;99.90;;;;;;5005753;28;20042;-82
2023/08/10 08:02:55;;;;;;;4.15;2.58;;;18.40;99.90;;;;;;4995770;28;20053;-82
2023/08/10 08:05:22;;;;;;;5.18;2.28;;;18.50;99.90;;;;;;4997179;28;20045;-83
2023/08/10 08:07:49;;;;;;;3.03;2.38;;;18.50;99.90;;;;;;5009677;28;20104;-80
2023/08/10 08:10:16;;;;;;;5.38;2.00;;;18.60;99.90;;;;;;5009415;28;20484;-82
2023/08/10 08:12:42;;;;;;;3.90;1.88;;;18.60;99.90;;;;;;5008139;28;20058;-80
2023/08/10 08:15:09;;;;;;;4.55;1.98;;;18.70;99.90;;;;;;4995550;28;20049;-81
2023/08/10 08:18:14;;;;;;;2.80;2.22;;;18.70;99.90;;;;;;5012701;28;20559;-82
2023/08/10 08:20:40;;;;;;;3.17;2.03;;;18.70;99.90;;;;;;5008913;28;20099;-82
2023/08/10 08:23:07;;;;;;;3.15;1.90;;;18.80;99.90;;;;;;5005537;28;20050;-81
2023/08/10 08:25:34;;;;;;;3.13;1.80;;;18.80;99.90;;;;;;5008997;28;20046;-82
2023/08/10 08:28:04;;;;;;;4.23;2.10;;;18.90;99.90;;;;;;5002905;28;20140;-79
2023/08/10 08:30:31;;;;;;;5.63;2.17;;;18.90;99.90;;;;;;4994610;28;20363;-81
2023/08/10 08:32:58;;;;;;;3.47;2.17;;;19.00;99.90;;;;;;5010712;28;20072;-82
2023/08/10 08:35:26;;;;;;;3.53;2.10;;;19.00;99.90;;;;;;5010035;28;20480;-80
2023/08/10 08:37:53;;;;;;;3.72;1.92;;;19.10;99.90;;;;;;5005971;28;20435;-80
2023/08/10 08:40:20;;;;;;;3.83;1.90;;;19.20;99.90;;;;;;4995526;28;20425;-82
2023/08/10 08:42:48;;;;;;;4.97;2.28;;;19.20;99.90;;;;;;4989192;28;20042;-84
2023/08/10 08:45:16;;;;;;;5.18;2.10;;;19.20;99.90;;;;;;5003151;28;20050;-82
2023/08/10 08:47:44;;;;;;;2.97;1.75;;;19.30;99.90;;;;;;5009337;28;20046;-81
2023/08/10 08:50:11;;;;;;;2.60;1.80;;;19.40;99.90;;;;;;5011093;28;20042;-83
2023/08/10 08:52:39;;;;;;;5.75;2.47;;;19.40;99.90;;;;;;5010844;28;20406;-81
2023/08/10 08:55:09;;;;;;;4.65;2.15;;;19.50;99.90;;;;;;5011852;28;20075;-81
2023/08/10 08:57:37;;;;;;;9.02;2.10;;;19.50;99.90;;;;;;5008441;28;20591;-83
2023/08/10 09:00:06;;;;;;;3.58;1.83;;;19.60;99.90;;;;;;5007649;28;20042;-83
2023/08/10 09:02:33;;;;;;;3.08;1.70;;;19.70;99.90;;;;;;5008777;28;20422;-82
2023/08/10 09:05:01;;;;;;;3.22;1.60;;;19.70;99.90;;;;;;5012475;28;20141;-83
2023/08/10 09:07:30;;;;;;;2.50;2.00;;;19.80;99.90;;;;;;4999818;28;20076;-83
2023/08/10 09:09:57;;;;;;;3.47;1.73;;;19.80;99.90;;;;;;5005885;28;20056;-81
2023/08/10 09:12:35;;;;;;;2.78;2.00;;;19.90;99.90;;;;;;4988369;28;20053;-81
2023/08/10 09:15:09;;;;;;;3.40;1.70;;;20.00;99.90;;;;;;5003739;28;20042;-82
2023/08/10 09:17:48;;;;;;;3.03;2.00;;;20.00;99.90;;;;;;4994323;28;20046;-84
2023/08/10 09:20:22;;;;;;;3.53;1.77;;;20.10;99.90;;;;;;5009073;28;20520;-81
2023/08/10 09:22:52;;;;;;;6.05;1.63;;;20.00;99.90;;;;;;5001928;28;20046;-81
2023/08/10 09:25:19;;;;;;;2.22;1.73;;;20.00;99.90;;;;;;5009607;28;20100;-81
2023/08/10 09:27:47;;;;;;;5.55;1.98;;;20.20;99.90;;;;;;5003715;28;20050;-82
2023/08/10 09:30:16;;;;;;;5.13;2.38;;;20.20;99.90;;;;;;5007626;28;20136;-84
2023/08/10 09:32:43;;;;;;;3.42;1.73;;;20.20;99.90;;;;;;4990464;28;20054;-81
2023/08/10 09:35:17;;;;;;;5.00;2.25;;;20.20;99.90;;;;;;4996320;28;20521;-83
2023/08/10 09:37:47;;;;;;;2.33;1.58;;;20.30;99.90;;;;;;5010640;28;20061;-81
2023/08/10 09:40:15;;;;;;;;;;;20.30;99.90;;;;;;5012024;28;20073;-80
2023/08/10 09:42:42;;;;;;;3.25;1.70;;;20.40;99.90;;;;;;5009778;28;19983;-83
2023/08/10 09:45:13;;;;;;;2.15;1.60;;;20.40;99.90;;;;;;4995975;28;20046;-83
2023/08/10 09:47:41;;;;;;;2.78;1.80;;;20.40;99.90;;;;;;5008336;28;20049;-81
2023/08/10 09:50:12;;;;;;;3.53;1.60;;;20.50;99.90;;;;;;4991079;28;20106;-83
2023/08/10 09:52:39;;;;;;;3.15;1.67;;;20.60;99.90;;;;;;5003193;28;20103;-83
2023/08/10 09:55:07;;;;;;;1.73;1.50;;;20.70;99.90;;;;;;5004891;28;20054;-82
2023/08/10 09:57:40;;;;;;;3.97;1.70;;;20.80;99.90;;;;;;5008751;28;20101;-83
2023/08/10 10:00:18;;;;;;;3.75;1.67;;;20.80;99.90;;;;;;5010350;28;20108;-83
2023/08/10 10:02:46;;;;;;;1.90;1.65;;;20.90;99.90;;;;;;5008790;28;20073;-83
2023/08/10 10:05:17;;;;;;;2.50;1.70;;;21.00;99.90;;;;;;5007964;28;20053;-82
2023/08/10 10:08:02;;;;;;;3.35;1.92;;;21.00;99.90;;;;;;5003407;28;20058;-80
2023/08/10 10:10:32;;;;;;;2.83;2.10;;;21.10;99.90;;;;;;4991864;28;20051;-82
2023/08/10 10:13:01;;;;;;;2.72;1.40;;;21.20;99.90;;;;;;4987535;28;20053;-82
2023/08/10 10:15:29;;;;;;;3.00;1.73;;;21.20;99.90;;;;;;5009516;28;20247;-83
2023/08/10 10:17:56;;;;;;;2.28;1.70;;;21.20;99.90;;;;;;5010375;28;20038;-80
2023/08/10 10:20:23;;;;;;;2.97;1.88;;;21.30;99.90;;;;;;5006881;28;20069;-83
2023/08/10 10:22:50;;;;;;;3.70;1.75;;;21.30;99.90;;;;;;5004987;28;20062;-83
2023/08/10 10:25:19;;;;;;;3.10;1.92;;;21.40;99.90;;;;;;5010706;28;20065;-81
2023/08/10 10:27:48;;;;;;;2.72;1.73;;;21.50;99.90;;;;;;5007998;28;20061;-83
2023/08/10 10:30:17;;;;;;;7.78;2.08;;;21.50;99.90;;;;;;5011503;28;20528;-80
2023/08/10 10:32:47;;;;;;;3.78;2.05;;;21.60;99.90;;;;;;5001167;28;20120;-82
2023/08/10 10:35:28;;;;;;;3.05;1.90;;;21.60;99.90;;;;;;5015470;28;20051;-82
2023/08/10 10:37:57;;;;;;;3.72;1.50;;;21.60;99.90;;;;;;5014325;28;20120;-82
2023/08/10 10:40:24;;;;;;;3.47;1.90;;;21.70;99.90;;;;;;5012212;28;20046;-81
2023/08/10 10:43:03;;;;;;;2.78;1.48;;;21.70;99.90;;;;;;5012507;28;20046;-83
2023/08/10 10:45:43;;;;;;;2.85;1.65;;;21.70;99.90;;;;;;4994444;28;20046;-84
2023/08/10 10:48:11;;;;;;;2.90;1.70;;;21.80;99.90;;;;;;5001653;28;20049;-82
2023/08/10 10:50:39;;;;;;;2.88;1.50;;;21.80;99.90;;;;;;5011419;28;20485;-83
2023/08/10 10:53:13;;;;;;;4.25;1.73;;;21.80;99.90;;;;;;4997171;28;20053;-83
2023/08/10 10:55:43;;;;;;;1.85;1.60;;;21.90;99.90;;;;;;5012406;28;20087;-82
2023/08/10 10:58:12;;;;;;;1.77;1.52;;;22.00;99.90;;;;;;4997425;28;20073;-81
2023/08/10 11:00:40;;;;;;;3.30;1.40;;;22.10;99.90;;;;;;5011155;28;20421;-83
2023/08/10 11:03:09;;;;;;;2.55;1.42;;;22.10;99.90;;;;;;4996863;28;20502;-82
2023/08/10 11:05:37;;;;;;;3.17;1.52;;;22.10;99.90;;;;;;5010494;28;20130;-82
2023/08/10 11:08:06;;;;;;;1.30;1.20;;;22.10;99.90;;;;;;5004181;28;20058;-80
2023/08/10 11:10:37;;;;;;;2.45;1.40;;;22.10;99.90;;;;;;5011921;28;20136;-80
2023/08/10 11:13:05;;;;;;;1.88;1.50;;;22.20;99.90;;;;;;5014132;28;20050;-81
2023/08/10 11:15:34;;;;;;;4.63;1.55;;;22.20;99.90;;;;;;5006499;28;20061;-81
2023/08/10 11:18:03;;;;;;;2.42;1.63;;;22.20;99.90;;;;;;5010399;28;20043;-83
2023/08/10 11:20:30;;;;;;;4.78;1.40;;;22.30;99.90;;;;;;5001038;28;20069;-82
2023/08/10 11:22:57;;;;;;;5.15;1.20;;;22.30;99.90;;;;;;4999248;28;20046;-81
2023/08/10 11:25:25;;;;;;;2.38;1.30;;;22.30;99.90;;;;;;5014784;28;20469;-83
2023/08/10 11:27:53;;;;;;;3.08;1.38;;;22.40;99.90;;;;;;5014442;28;20092;-80
2023/08/10 11:30:22;;;;;;;2.95;1.35;;;22.40;99.90;;;;;;5004513;28;20056;-81
2023/08/10 11:32:51;;;;;;;1.60;1.30;;;22.40;99.90;;;;;;4988667;28;20045;-81
2023/08/10 11:35:20;;;;;;;2.42;1.08;;;22.50;99.90;;;;;;5008666;28;20053;-78
2023/08/10 11:37:51;;;;;;;3.47;1.47;;;22.60;99.90;;;;;;4983217;28;20081;-81
2023/08/10 11:40:20;;;;;;;2.65;1.48;;;22.60;99.90;;;;;;4995847;28;20057;-80
2023/08/10 11:43:11;;;;;;;4.30;1.88;;;22.70;99.90;;;;;;5010589;28;20046;-79
2023/08/10 11:45:38;;;;;;;2.80;1.30;;;22.70;99.90;;;;;;4987627;28;20050;-81
2023/08/10 11:48:09;;;;;;;4.68;1.52;;;22.80;99.90;;;;;;4999247;28;20057;-81
2023/08/10 11:50:40;;;;;;;4.07;2.00;;;22.70;99.90;;;;;;5008847;28;20050;-82
2023/08/10 11:53:11;;;;;;;5.38;1.50;;;22.70;99.90;;;;;;5001077;28;20043;-81
2023/08/10 11:55:43;;;;;;;1.30;1.17;;;22.70;99.90;;;;;;5011881;28;20054;-79
2023/08/10 11:58:13;;;;;;;2.15;1.40;;;22.70;99.90;;;;;;5012402;28;20045;-83
2023/08/10 12:00:46;;;;;;;2.58;1.48;;;22.80;99.90;;;;;;5007721;28;20528;-80
2023/08/10 12:03:18;;;;;;;1.48;1.38;;;22.90;99.90;;;;;;5007543;28;20567;-80
2023/08/10 12:05:56;;;;;;;2.88;1.52;;;23.00;99.90;;;;;;5010004;28;20545;-81
2023/08/10 12:08:24;;;;;;;3.15;1.20;;;23.10;99.90;;;;;;5004376;28;20104;-81
2023/08/10 12:10:58;;;;;;;1.73;1.38;;;23.10;99.90;;;;;;5011180;28;20079;-81
2023/08/10 12:13:25;;;;;;;3.38;1.65;;;23.00;99.90;;;;;;5010300;28;20050;-82
2023/08/10 12:15:53;;;;;;;2.83;1.60;;;23.00;99.90;;;;;;4990480;28;20053;-81
2023/08/10 12:18:22;;;;;;;1.63;1.30;;;23.10;99.90;;;;;;5009036;28;20042;-82
2023/08/10 12:20:51;;;;;;;1.63;1.40;;;23.10;99.90;;;;;;5006602;28;20042;-80
2023/08/10 12:23:19;;;;;;;2.45;1.48;;;23.20;99.90;;;;;;5013417;28;20049;-81
2023/08/10 12:25:50;;;;;;;3.20;1.33;;;23.20;99.90;;;;;;5014633;28;20054;-80
2023/08/10 12:28:19;;;;;;;3.80;1.48;;;23.30;99.90;;;;;;5014377;28;20127;-80
2023/08/10 12:30:46;;;;;;;3.35;1.52;;;23.40;99.90;;;;;;5006775;28;20077;-81
2023/08/10 12:33:13;;;;;;;4.07;1.88;;;23.40;99.90;;;;;;5005935;28;20050;-82
2023/08/10 12:35:40;;;;;;;1.98;1.33;;;23.40;99.90;;;;;;5007323;28;20050;-82
2023/08/10 12:38:09;;;;;;;3.30;1.58;;;23.50;99.90;;;;;;4989937;28;20049;-82
2023/08/10 12:40:37;;;;;;;4.00;2.15;;;23.50;99.90;;;;;;5008915;28;20054;-82
2023/08/10 12:43:05;;;;;;;2.08;1.40;;;23.60;99.90;;;;;;4998609;28;20037;-83
2023/08/10 12:45:32;;;;;;;2.40;1.40;;;23.60;99.90;;;;;;5004321;28;20054;-80
2023/08/10 12:48:00;;;;;;;2.72;1.60;;;23.60;99.90;;;;;;5003881;28;20050;-81
2023/08/10 12:50:27;;;;;;;2.80;1.50;;;23.60;99.90;;;;;;5007196;28;20050;-81
2023/08/10 12:52:54;;;;;;;4.03;1.40;;;23.60;99.90;;;;;;5007638;28;20100;-83